Terminal Aerodrome Forecast
Issued by NWS

Home | Current Version | Previous Version | Text Only | Print | Product List | Glossary On
Versions: 1 2 3 4 5 6 7 8 9 10 11 12 13 14 15 16 17 18 19 20 21 22 23 24 25 26 27 28 29 30 31 32 33 34 35 36 37 38 39
000
FTUS42 KGSP 291132
TAFHKY
TAF
KHKY 291132Z 2912/3012 00000KT 6SM BR SCT007 BKN015
     FM291400 19003KT P6SM SCT015 BKN025
     FM291800 20005KT P6SM VCSH BKN035
      TEMPO 2919/2923 VRB10G20KT 4SM TSRA BKN030CB
     FM300700 00000KT P6SM BKN060=

USA.gov is the U.S. government's official web portal to all federal, state and local government web resources and services.